< Cyclone 198603 1986 Season Cyclone 198605 >
Cyclone 198604 (HECTOR)
General InformationTrack Information on Google MapsDetailed Wind InformationList of All Images || ResourceGoogle EarthGE AnimationAtom FeedGeoJSON
Detalied Best Track (Time Zone = UTC)
Year Month Day Hour Lat. Long. Pressure (hPa) Wind (kt) Class Image Chart
1986 1 17 02 -11.7 130.6 998 0 0 Image --
1986 1 17 05 -12.1 130.0 998 0 0 Image --
1986 1 17 11 -12.6 129.8 996 0 0 Image --
1986 1 17 17 -12.8 129.6 989 0 0 Image --
1986 1 17 23 -12.5 129.0 986 0 0 Image --
1986 1 18 05 -12.6 128.7 986 0 0 Image --
1986 1 18 11 -12.9 128.7 984 0 0 Image --
1986 1 18 17 -13.1 128.8 984 0 0 Image --
1986 1 18 23 -13.2 128.8 985 0 0 Image --
1986 1 19 05 -13.3 128.9 977 0 0 Image --
1986 1 19 11 -14.0 128.4 976 0 0 Image --
1986 1 19 17 -14.6 128.2 973 0 0 Image --
1986 1 20 00 -15.3 127.8 978 51 4 Image --
1986 1 20 03 -15.3 127.4 990 47 3 Image --
1986 1 20 06 -15.9 127.0 992 43 3 Image --
1986 1 20 09 -16.2 126.7 992 43 3 Image --
1986 1 20 12 -16.4 126.4 992 43 3 Image --
1986 1 20 16 -16.7 125.9 992 43 3 Image --
1986 1 20 18 -16.8 125.6 992 43 3 Image --
1986 1 20 21 -16.9 125.3 992 43 3 Image --
1986 1 21 00 -17.0 125.0 991 45 3 Image --
1986 1 21 03 -17.1 124.8 991 45 3 Image --
1986 1 21 06 -17.1 124.6 991 45 3 Image --
1986 1 21 09 -17.1 124.5 991 45 3 Image --
1986 1 21 12 -17.1 124.4 991 45 3 Image --
1986 1 21 16 -17.1 124.3 991 45 3 Image --
1986 1 21 18 -17.1 124.2 991 45 3 Image --
1986 1 21 21 -17.1 124.0 991 45 3 Image --
1986 1 22 00 -17.0 123.9 991 45 3 Image --
1986 1 22 03 -17.0 123.8 990 47 3 Image --
1986 1 22 06 -17.0 123.7 988 51 4 Image --
1986 1 22 09 -17.0 123.6 988 51 4 Image --
1986 1 22 12 -16.9 123.5 987 53 4 Image --
1986 1 22 16 -16.8 123.4 987 53 4 Image --
1986 1 22 18 -16.8 123.3 988 51 4 Image --
1986 1 22 21 -16.9 123.3 989 47 3 Image --
1986 1 23 00 -17.0 123.4 990 47 3 Image --
1986 1 23 03 -17.1 123.5 991 45 3 Image --
1986 1 23 06 -17.2 123.6 992 43 3 Image --
1986 1 23 09 -17.4 123.8 992 43 3 Image --
1986 1 23 12 -17.7 124.1 993 43 3 Image --
1986 1 23 16 -17.8 124.5 994 39 3 Image --
1986 1 23 18 -18.1 124.8 994 39 3 Image --
1986 1 23 21 -18.5 125.1 994 39 3 Image --
1986 1 24 00 -18.9 125.2 994 39 3 Image --
1986 1 24 03 -19.5 125.5 995 37 3 Image --
1986 1 24 06 -19.9 126.0 995 37 3 Image --
< Cyclone 198603 1986 Season Cyclone 198605 >

Help